Time;durP1;ratioP1;P1;durP2;ratioP2;P2;SDS_P1;SDS_P2;PMS_P1;PMS_P2;Temp;Humidity;BMP_temperature;BMP_pressure;BME280_temperature;BME280_humidity;BME280_pressure;Samples;Min_cycle;Max_cycle;Signal;HPM_P1;HPM_P2
2022/11/03 00:01:49;;;;;;;5.07;1.50;;;14.00;74.80;;;;;;5076215;28;20040;-74
2022/11/03 00:04:17;;;;;;;6.65;1.92;;;14.00;74.80;;;;;;5085047;28;20483;-74
2022/11/03 00:06:45;;;;;;;6.00;2.08;;;14.00;74.80;;;;;;5084844;28;20076;-74
2022/11/03 00:09:13;;;;;;;4.68;2.40;;;14.00;74.80;;;;;;5083598;28;20038;-74
2022/11/03 00:11:40;;;;;;;7.47;2.58;;;14.00;74.80;;;;;;5086076;28;20027;-75
2022/11/03 00:14:10;;;;;;;5.88;1.70;;;14.00;74.80;;;;;;5084651;28;20047;-74
2022/11/03 00:16:37;;;;;;;8.30;1.50;;;14.00;74.80;;;;;;5080717;28;20576;-74
2022/11/03 00:19:03;;;;;;;6.50;1.77;;;14.00;74.70;;;;;;5083161;28;20036;-74
2022/11/03 00:21:29;;;;;;;5.45;1.55;;;14.00;74.70;;;;;;5084082;28;20406;-74
2022/11/03 00:23:55;;;;;;;8.85;2.13;;;14.00;74.70;;;;;;5071794;28;20104;-74
2022/11/03 00:26:23;;;;;;;6.18;2.33;;;13.90;74.60;;;;;;5069450;28;20032;-74
2022/11/03 00:28:54;;;;;;;5.65;1.70;;;13.90;74.60;;;;;;5074709;28;20028;-73
2022/11/03 00:31:26;;;;;;;6.03;1.75;;;13.90;74.60;;;;;;5078762;28;20175;-73
2022/11/03 00:33:53;;;;;;;7.05;1.58;;;13.90;74.60;;;;;;5081319;28;20145;-74
2022/11/03 00:36:28;;;;;;;7.15;2.63;;;13.90;74.60;;;;;;5079370;28;20054;-73
2022/11/03 00:38:54;;;;;;;7.20;1.90;;;13.90;74.70;;;;;;5086148;28;20026;-73
2022/11/03 00:41:21;;;;;;;5.57;1.55;;;13.90;74.60;;;;;;5086862;28;20042;-74
2022/11/03 00:43:48;;;;;;;7.20;1.58;;;13.90;74.70;;;;;;5083027;28;20379;-74
2022/11/03 00:46:15;;;;;;;8.90;1.80;;;13.90;74.70;;;;;;5085564;28;20039;-74
2022/11/03 00:48:41;;;;;;;7.90;2.55;;;13.90;74.70;;;;;;5073287;28;20028;-73
2022/11/03 00:51:11;;;;;;;9.50;2.10;;;13.90;74.70;;;;;;5081666;28;20031;-74
2022/11/03 00:53:43;;;;;;;8.95;2.00;;;13.90;74.70;;;;;;5084170;28;20038;-74
2022/11/03 00:56:15;;;;;;;6.97;2.22;;;13.90;74.70;;;;;;5084284;28;20040;-74
2022/11/03 00:58:42;;;;;;;6.25;2.33;;;13.90;74.70;;;;;;5079226;28;20028;-74
2022/11/03 01:01:10;;;;;;;10.57;2.53;;;13.90;74.80;;;;;;5082300;28;20652;-74
2022/11/03 01:03:37;;;;;;;6.97;1.80;;;13.90;74.70;;;;;;5078854;28;20043;-74
2022/11/03 01:08:54;;;;;;;8.85;2.90;;;13.90;74.70;;;;;;5081053;28;20475;-73
2022/11/03 01:14:10;;;;;;;7.32;1.70;;;13.90;74.70;;;;;;5082396;28;20035;-75
2022/11/03 01:16:35;;;;;;;6.65;1.70;;;13.90;74.70;;;;;;5068001;28;20509;-74
2022/11/03 01:19:01;;;;;;;5.57;3.00;;;13.90;74.70;;;;;;5081540;28;20028;-73
2022/11/03 01:21:27;;;;;;;10.20;2.78;;;13.90;74.70;;;;;;5082058;28;20059;-73
2022/11/03 01:23:53;;;;;;;6.65;1.95;;;13.90;74.80;;;;;;5083342;28;20047;-73
2022/11/03 01:26:19;;;;;;;6.40;2.40;;;13.80;74.60;;;;;;5082217;28;20051;-73
2022/11/03 01:28:46;;;;;;;9.02;1.80;;;13.80;74.60;;;;;;5075064;28;20036;-74
2022/11/03 01:31:18;;;;;;;7.10;2.17;;;13.80;74.70;;;;;;5080583;28;20036;-73
2022/11/03 01:33:44;;;;;;;7.70;2.03;;;13.80;74.70;;;;;;5070815;28;20117;-73
2022/11/03 01:36:11;;;;;;;9.48;2.47;;;13.80;74.70;;;;;;5064579;28;20044;-74
2022/11/03 01:38:37;;;;;;;7.22;2.22;;;13.80;74.70;;;;;;5074982;28;20040;-74
2022/11/03 01:41:06;;;;;;;6.50;1.65;;;13.80;74.80;;;;;;5076927;28;20013;-73
2022/11/03 01:43:32;;;;;;;6.03;2.00;;;13.80;74.80;;;;;;5068670;28;20066;-73
2022/11/03 01:46:10;;;;;;;7.07;2.00;;;13.80;74.80;;;;;;5077926;28;20484;-73
2022/11/03 01:48:42;;;;;;;6.53;1.80;;;13.70;74.70;;;;;;5083918;28;20036;-72
2022/11/03 01:51:10;;;;;;;7.35;2.40;;;13.80;74.90;;;;;;5080222;28;20037;-74
2022/11/03 01:53:41;;;;;;;7.30;2.25;;;13.70;74.70;;;;;;5077815;28;20012;-74
2022/11/03 01:56:08;;;;;;;6.32;2.35;;;13.70;74.70;;;;;;5080940;28;20039;-74
2022/11/03 01:58:38;;;;;;;4.68;1.90;;;13.70;74.80;;;;;;5079715;28;20081;-74
2022/11/03 02:01:04;;;;;;;6.72;1.90;;;13.70;74.80;;;;;;5081604;28;20033;-74
2022/11/03 02:03:35;;;;;;;8.45;1.95;;;13.70;74.80;;;;;;5080911;28;20031;-75
2022/11/03 02:06:02;;;;;;;4.38;1.45;;;13.70;74.80;;;;;;5085144;28;20020;-74
2022/11/03 02:08:38;;;;;;;9.15;2.17;;;13.60;74.60;;;;;;5085234;28;20391;-74
2022/11/03 02:12:05;;;;;;;5.47;2.05;;;13.60;74.70;;;;;;5082297;28;20024;-74
2022/11/03 02:13:51;;;;;;;4.50;1.23;;;13.70;74.90;;;;;;5081520;28;20031;-72
2022/11/03 02:16:19;;;;;;;7.20;1.88;;;13.60;74.70;;;;;;5082671;28;20126;-73
2022/11/03 02:18:46;;;;;;;9.07;2.40;;;13.60;74.70;;;;;;5083748;28;20432;-74
2022/11/03 02:21:27;;;;;;;7.18;2.08;;;13.60;74.70;;;;;;5068342;28;20375;-74
2022/11/03 02:24:01;;;;;;;4.85;1.58;;;13.60;74.70;;;;;;5082760;28;20031;-73
2022/11/03 02:26:27;;;;;;;7.65;2.30;;;13.60;74.70;;;;;;5085559;28;20050;-73
2022/11/03 02:28:53;;;;;;;5.88;2.08;;;13.60;74.70;;;;;;5076244;28;20028;-74
2022/11/03 02:31:36;;;;;;;6.65;1.80;;;13.60;75.30;;;;;;5084907;28;20045;-74
2022/11/03 02:34:11;;;;;;;6.22;1.83;;;13.50;74.60;;;;;;5071868;28;20023;-74
2022/11/03 02:36:56;;;;;;;6.82;1.92;;;13.50;74.60;;;;;;5082657;28;20048;-74
2022/11/03 02:39:28;;;;;;;8.82;1.83;;;13.50;75.10;;;;;;5084011;28;20028;-74
2022/11/03 02:41:58;;;;;;;5.45;1.48;;;13.40;74.40;;;;;;5086020;28;20043;-75
2022/11/03 02:44:26;;;;;;;9.05;2.83;;;13.50;74.70;;;;;;5079389;28;20039;-73
2022/11/03 02:46:57;;;;;;;6.50;2.38;;;13.40;74.50;;;;;;5085429;28;20025;-73
2022/11/03 02:49:23;;;;;;;4.63;1.65;;;13.40;74.50;;;;;;5088565;28;20081;-74
2022/11/03 02:51:59;;;;;;;8.02;2.05;;;13.40;74.60;;;;;;5090069;28;20028;-74
2022/11/03 02:54:30;;;;;;;4.43;1.42;;;13.40;74.60;;;;;;5086180;28;20036;-74
2022/11/03 02:57:05;;;;;;;5.10;1.90;;;13.40;74.60;;;;;;5082835;28;20164;-74
2022/11/03 02:59:42;;;;;;;8.00;2.20;;;13.40;74.60;;;;;;5086476;28;20039;-72
2022/11/03 03:02:11;;;;;;;9.02;2.80;;;13.30;74.50;;;;;;5076419;28;20039;-73
2022/11/03 03:04:41;;;;;;;9.10;2.30;;;13.30;74.40;;;;;;5090003;28;20032;-74
2022/11/03 03:07:12;;;;;;;6.40;2.80;;;13.30;74.50;;;;;;5088591;28;20042;-74
2022/11/03 03:10:04;;;;;;;5.55;1.70;;;13.30;74.50;;;;;;5087095;28;20077;-73
2022/11/03 03:12:33;;;;;;;8.93;2.63;;;13.30;74.50;;;;;;5075049;28;20089;-73
2022/11/03 03:15:02;;;;;;;7.72;2.50;;;13.30;74.50;;;;;;5088583;28;20028;-73
2022/11/03 03:17:56;;;;;;;9.13;2.60;;;13.20;74.30;;;;;;5069479;28;20774;-74
2022/11/03 03:20:31;;;;;;;10.20;2.80;;;13.30;74.50;;;;;;5082556;28;20392;-74
2022/11/03 03:23:06;;;;;;;5.90;1.92;;;13.20;74.30;;;;;;5088355;28;20054;-74
2022/11/03 03:25:40;;;;;;;5.70;2.05;;;13.20;74.30;;;;;;5088377;28;20044;-74
2022/11/03 03:28:10;;;;;;;7.60;1.98;;;13.20;74.40;;;;;;5082915;28;20494;-74
2022/11/03 03:30:38;;;;;;;6.43;1.67;;;13.20;74.40;;;;;;5087025;28;20085;-74
2022/11/03 03:33:06;;;;;;;4.95;1.23;;;13.20;74.40;;;;;;5089336;28;20032;-74
2022/11/03 03:35:35;;;;;;;7.68;1.80;;;13.10;74.20;;;;;;5088895;28;20089;-74
2022/11/03 03:38:07;;;;;;;5.70;1.70;;;13.20;74.50;;;;;;5087106;28;20043;-73
2022/11/03 03:40:37;;;;;;;8.93;2.78;;;13.10;74.30;;;;;;5090073;28;20032;-75
2022/11/03 03:43:07;;;;;;;3.17;2.17;;;13.10;74.30;;;;;;5088730;28;20031;-73
2022/11/03 03:45:34;;;;;;;5.22;1.73;;;13.10;74.30;;;;;;5085056;28;20406;-74
2022/11/03 03:48:01;;;;;;;5.90;1.50;;;13.10;74.40;;;;;;5087949;28;20032;-75
2022/11/03 03:50:31;;;;;;;7.68;2.13;;;13.10;74.40;;;;;;5089460;28;20077;-75
2022/11/03 03:53:00;;;;;;;8.73;2.75;;;13.00;74.20;;;;;;5082579;28;20032;-74
2022/11/03 03:55:34;;;;;;;3.97;1.58;;;13.00;74.20;;;;;;5082365;28;20074;-74
2022/11/03 03:58:02;;;;;;;5.70;1.65;;;13.00;74.30;;;;;;5073556;28;20039;-74
2022/11/03 04:00:27;;;;;;;6.68;2.15;;;13.00;74.30;;;;;;5084774;28;20390;-74
2022/11/03 04:02:56;;;;;;;7.43;1.52;;;13.00;74.30;;;;;;5089382;28;20024;-74
2022/11/03 04:05:23;;;;;;;6.50;2.13;;;13.00;74.30;;;;;;5078418;28;20077;-73
2022/11/03 04:07:50;;;;;;;4.95;1.20;;;13.00;74.30;;;;;;5076405;28;20050;-74
2022/11/03 04:10:19;;;;;;;5.75;2.08;;;13.00;74.30;;;;;;5089318;28;20022;-73
2022/11/03 04:23:45;;;;;;;6.57;1.55;;;12.90;74.20;;;;;;5087333;28;20031;-73
2022/11/03 04:26:17;;;;;;;7.10;1.70;;;13.00;74.40;;;;;;5088431;28;20024;-74
2022/11/03 04:28:43;;;;;;;4.65;1.55;;;12.90;74.30;;;;;;5082180;28;20108;-73
2022/11/03 04:31:14;;;;;;;6.78;1.85;;;12.90;74.30;;;;;;5089159;28;20024;-73
2022/11/03 04:33:41;;;;;;;6.40;2.10;;;12.90;74.30;;;;;;5089987;28;20024;-73
2022/11/03 04:36:22;;;;;;;5.53;2.55;;;12.90;74.30;;;;;;5082456;28;20044;-73
2022/11/03 04:38:50;;;;;;;3.63;1.60;;;12.90;74.30;;;;;;5091638;28;20042;-73
2022/11/03 04:41:23;;;;;;;5.50;1.60;;;12.90;74.40;;;;;;5070699;28;20032;-73
2022/11/03 04:43:50;;;;;;;9.30;3.30;;;12.80;74.20;;;;;;5081213;28;20024;-73
2022/11/03 04:46:27;;;;;;;7.13;2.00;;;12.80;74.20;;;;;;5089456;28;20036;-73
2022/11/03 04:48:56;;;;;;;6.43;1.50;;;12.80;74.20;;;;;;5074161;28;20032;-73
2022/11/03 04:51:25;;;;;;;6.03;3.00;;;12.80;74.30;;;;;;5089280;28;20538;-74
2022/11/03 04:53:59;;;;;;;5.05;2.20;;;12.80;74.30;;;;;;5088982;28;20027;-74
2022/11/03 04:56:25;;;;;;;7.97;2.55;;;12.80;74.40;;;;;;5084551;28;20048;-74
2022/11/03 04:58:52;;;;;;;5.18;1.50;;;12.70;74.20;;;;;;5082346;28;20028;-73
2022/11/03 05:01:21;;;;;;;5.38;1.52;;;12.80;74.40;;;;;;5087837;28;20027;-74
2022/11/03 05:03:51;;;;;;;4.07;1.20;;;12.70;74.30;;;;;;5087892;28;20028;-74
2022/11/03 05:06:24;;;;;;;6.70;1.95;;;12.70;74.30;;;;;;5088077;28;20028;-73
2022/11/03 05:08:55;;;;;;;4.90;1.55;;;12.70;74.30;;;;;;5075549;28;20036;-74
2022/11/03 05:11:35;;;;;;;6.25;2.40;;;12.70;74.30;;;;;;5087847;28;20024;-73
2022/11/03 05:14:08;;;;;;;5.53;2.03;;;12.70;74.40;;;;;;5073449;28;20036;-75
2022/11/03 05:16:34;;;;;;;4.50;1.35;;;12.70;74.40;;;;;;5074086;28;20047;-75
2022/11/03 05:19:00;;;;;;;4.10;1.45;;;12.70;74.40;;;;;;5073440;28;20521;-74
2022/11/03 05:21:27;;;;;;;4.78;1.85;;;12.70;74.40;;;;;;5087149;28;20036;-75
2022/11/03 05:24:01;;;;;;;3.92;1.33;;;12.70;74.40;;;;;;5068698;28;20024;-75
2022/11/03 05:26:31;;;;;;;5.45;1.50;;;12.70;74.50;;;;;;5082063;28;20024;-75
2022/11/03 05:29:08;;;;;;;6.47;1.92;;;12.70;74.50;;;;;;5078780;28;20391;-76
2022/11/03 05:31:36;;;;;;;5.97;1.50;;;12.70;74.50;;;;;;5085885;28;20066;-74
2022/11/03 05:34:36;;;;;;;6.03;1.50;;;12.60;74.30;;;;;;5087580;28;20076;-74
2022/11/03 05:37:05;;;;;;;8.73;1.48;;;12.70;74.60;;;;;;5074787;28;20051;-74
2022/11/03 05:39:39;;;;;;;5.07;1.50;;;12.70;74.50;;;;;;5081583;28;20020;-75
2022/11/03 05:42:32;;;;;;;5.40;1.30;;;12.60;74.40;;;;;;5087531;28;20393;-75
2022/11/03 05:45:00;;;;;;;5.90;1.70;;;12.60;74.40;;;;;;5072613;28;20028;-76
2022/11/03 05:47:29;;;;;;;5.30;1.38;;;12.60;74.40;;;;;;5082216;28;20029;-75
2022/11/03 05:50:00;;;;;;;5.82;2.55;;;12.60;74.40;;;;;;5079092;28;20765;-75
2022/11/03 05:52:27;;;;;;;3.72;1.33;;;12.60;74.50;;;;;;5081560;28;20417;-74
2022/11/03 05:54:57;;;;;;;5.03;1.48;;;12.50;74.30;;;;;;5079060;28;20020;-75
2022/11/03 05:57:27;;;;;;;5.80;1.35;;;12.60;74.50;;;;;;5070146;28;20036;-74
2022/11/03 05:59:53;;;;;;;6.53;2.15;;;12.60;74.60;;;;;;5078161;28;20036;-74
2022/11/03 06:02:38;;;;;;;2.92;1.40;;;12.50;74.40;;;;;;5083197;28;20398;-74
2022/11/03 06:05:16;;;;;;;5.05;1.52;;;12.50;74.50;;;;;;5080516;28;20023;-74
2022/11/03 06:07:42;;;;;;;3.05;1.15;;;12.60;74.70;;;;;;5076108;28;20024;-73
2022/11/03 06:10:31;;;;;;;3.47;1.58;;;12.50;74.50;;;;;;5076086;28;20035;-73
2022/11/03 06:13:20;;;;;;;5.85;1.55;;;12.50;74.50;;;;;;5063983;28;20398;-74
2022/11/03 06:15:49;;;;;;;4.57;1.17;;;12.50;74.60;;;;;;5072703;28;20087;-73
2022/11/03 06:18:20;;;;;;;4.38;1.75;;;12.50;74.50;;;;;;5076941;28;20596;-73
2022/11/03 06:21:18;;;;;;;4.57;1.30;;;12.50;74.60;;;;;;5071184;28;20017;-74
2022/11/03 06:23:44;;;;;;;5.45;1.85;;;12.40;74.50;;;;;;5044015;28;20036;-75
2022/11/03 06:26:18;;;;;;;2.60;1.40;;;12.50;74.60;;;;;;5075512;28;20356;-73
2022/11/03 06:28:45;;;;;;;4.78;1.27;;;12.40;74.50;;;;;;5052250;28;20101;-73
2022/11/03 06:31:29;;;;;;;3.65;1.33;;;12.50;74.70;;;;;;5073267;28;20036;-74
2022/11/03 06:33:57;;;;;;;3.65;1.50;;;12.40;74.50;;;;;;5078960;28;20028;-75
2022/11/03 06:36:35;;;;;;;4.75;1.20;;;12.40;74.60;;;;;;5085796;28;20655;-74
2022/11/03 06:39:07;;;;;;;3.50;1.17;;;12.40;74.60;;;;;;5082452;28;20479;-74
2022/11/03 06:41:35;;;;;;;3.35;1.30;;;12.40;74.60;;;;;;5062823;28;20036;-74
2022/11/03 06:44:14;;;;;;;5.10;2.22;;;12.40;74.60;;;;;;5079649;28;20033;-74
2022/11/03 06:46:40;;;;;;;7.80;1.67;;;12.40;74.70;;;;;;5074118;28;20062;-74
2022/11/03 06:49:31;;;;;;;3.03;1.00;;;12.40;74.60;;;;;;5074739;28;20024;-73
2022/11/03 06:52:01;;;;;;;5.40;1.30;;;12.40;74.80;;;;;;5080667;28;20025;-73
2022/11/03 06:54:27;;;;;;;5.63;1.70;;;12.40;74.70;;;;;;5080950;28;20020;-74
2022/11/03 06:56:53;;;;;;;3.42;1.10;;;12.40;74.80;;;;;;5080057;28;20047;-74
2022/11/03 06:59:19;;;;;;;2.70;1.10;;;12.40;74.80;;;;;;5082316;28;20537;-73
2022/11/03 07:01:50;;;;;;;3.63;1.20;;;12.40;75.00;;;;;;5082494;28;20036;-73
2022/11/03 07:04:28;;;;;;;3.95;1.40;;;12.40;74.80;;;;;;5083989;28;20008;-76
2022/11/03 07:07:00;;;;;;;3.40;1.10;;;12.40;74.80;;;;;;5084480;28;20032;-76
2022/11/03 07:09:26;;;;;;;4.93;1.58;;;12.40;74.80;;;;;;5078809;28;20046;-73
2022/11/03 07:11:55;;;;;;;5.55;1.35;;;12.40;74.80;;;;;;5080833;28;20189;-73
2022/11/03 07:14:30;;;;;;;3.22;1.20;;;12.40;74.80;;;;;;5078932;28;20440;-73
2022/11/03 07:17:02;;;;;;;4.10;1.25;;;12.40;74.80;;;;;;5067294;28;20040;-73
2022/11/03 07:19:29;;;;;;;4.32;1.58;;;12.40;74.80;;;;;;5075824;28;20086;-72
2022/11/03 07:21:58;;;;;;;3.97;1.50;;;12.40;74.80;;;;;;5083758;28;20126;-73
2022/11/03 07:24:24;;;;;;;2.72;0.98;;;12.40;74.80;;;;;;5076841;28;20134;-74
2022/11/03 07:27:18;;;;;;;4.57;1.48;;;12.40;74.90;;;;;;5083683;28;20535;-76
2022/11/03 07:29:45;;;;;;;3.13;1.40;;;12.40;74.90;;;;;;5084500;28;20097;-76
2022/11/03 07:32:23;;;;;;;3.33;1.40;;;12.40;74.90;;;;;;5085828;28;20036;-76
2022/11/03 07:34:51;;;;;;;4.65;1.00;;;12.50;75.00;;;;;;5065683;28;20028;-75
2022/11/03 07:37:20;;;;;;;6.75;1.92;;;12.40;74.80;;;;;;5083755;28;20036;-76
2022/11/03 07:39:47;;;;;;;4.40;1.10;;;12.40;74.80;;;;;;5074332;28;20077;-78
2022/11/03 07:42:24;;;;;;;5.15;1.17;;;12.40;74.80;;;;;;5085037;28;20452;-77
2022/11/03 07:44:54;;;;;;;2.47;1.20;;;12.40;74.80;;;;;;5060066;28;20028;-75
2022/11/03 07:47:26;;;;;;;3.20;1.10;;;12.40;74.80;;;;;;5075873;28;20463;-76
2022/11/03 07:49:55;;;;;;;5.43;1.35;;;12.40;74.80;;;;;;5072233;28;20515;-76
2022/11/03 07:52:25;;;;;;;6.03;0.95;;;12.40;74.80;;;;;;5083518;28;20030;-75
2022/11/03 07:54:56;;;;;;;3.33;1.25;;;12.30;74.60;;;;;;5083245;28;20303;-76
2022/11/03 07:57:25;;;;;;;3.38;0.90;;;12.40;74.80;;;;;;5079182;28;20032;-73
2022/11/03 07:59:55;;;;;;;4.20;1.10;;;12.40;75.30;;;;;;5080273;28;20031;-73
2022/11/03 08:02:47;;;;;;;4.95;1.35;;;12.40;74.70;;;;;;5083499;28;20098;-73
2022/11/03 08:05:13;;;;;;;4.45;1.30;;;12.40;74.70;;;;;;5079583;28;20130;-74
2022/11/03 08:07:39;;;;;;;4.95;1.15;;;12.40;74.60;;;;;;5080118;28;20586;-77
2022/11/03 08:10:06;;;;;;;4.38;2.15;;;12.40;74.60;;;;;;5082847;28;20173;-76
2022/11/03 08:12:32;;;;;;;4.75;1.55;;;12.40;74.60;;;;;;5073797;28;20032;-75
2022/11/03 08:14:58;;;;;;;4.40;1.35;;;12.40;74.60;;;;;;5082322;28;20514;-77
2022/11/03 08:17:24;;;;;;;1.73;0.88;;;12.40;74.50;;;;;;5075179;28;20417;-79
2022/11/03 08:19:50;;;;;;;3.65;1.02;;;12.40;74.50;;;;;;5076956;28;20538;-74
2022/11/03 08:22:16;;;;;;;3.40;1.23;;;12.50;74.60;;;;;;5074729;28;20024;-75
2022/11/03 08:24:43;;;;;;;4.53;1.05;;;12.50;74.60;;;;;;5084694;28;20024;-75
2022/11/03 08:27:08;;;;;;;6.50;1.40;;;12.50;74.50;;;;;;5081635;28;20031;-75
2022/11/03 08:29:34;;;;;;;4.82;1.60;;;12.50;75.00;;;;;;5076639;28;20028;-76
2022/11/03 08:32:00;;;;;;;3.45;1.05;;;12.50;74.90;;;;;;5084275;28;20028;-76
2022/11/03 08:34:26;;;;;;;5.80;1.65;;;12.50;74.40;;;;;;5080775;28;20047;-77
2022/11/03 08:36:52;;;;;;;3.13;1.25;;;12.50;74.40;;;;;;5084560;28;20047;-75
2022/11/03 08:39:18;;;;;;;5.07;1.27;;;12.60;74.50;;;;;;5082785;28;20024;-76
2022/11/03 08:41:44;;;;;;;4.85;1.13;;;12.60;74.40;;;;;;5072570;28;20048;-74
2022/11/03 08:44:10;;;;;;;4.82;0.98;;;12.60;74.40;;;;;;5082976;28;20446;-74
2022/11/03 08:46:36;;;;;;;5.05;1.13;;;12.60;74.40;;;;;;5074096;28;20036;-73
2022/11/03 08:49:01;;;;;;;4.78;1.30;;;12.60;74.30;;;;;;5081265;28;20191;-73
2022/11/03 08:51:27;;;;;;;4.03;1.20;;;12.70;74.30;;;;;;5081777;28;20094;-74
2022/11/03 08:53:54;;;;;;;2.88;0.98;;;12.80;74.40;;;;;;5086383;28;20063;-73
2022/11/03 08:56:20;;;;;;;4.30;2.22;;;12.80;74.30;;;;;;5084978;28;20576;-74
2022/11/03 08:58:47;;;;;;;3.72;1.40;;;12.90;74.30;;;;;;5073280;28;20518;-75
2022/11/03 09:01:12;;;;;;;5.45;1.20;;;12.90;74.10;;;;;;5081392;28;20523;-76
2022/11/03 09:03:39;;;;;;;4.78;1.35;;;12.90;74.00;;;;;;5084074;28;20122;-75
2022/11/03 09:06:06;;;;;;;4.68;1.13;;;13.10;74.20;;;;;;5069198;28;20085;-75
2022/11/03 09:08:32;;;;;;;5.47;1.13;;;13.10;74.00;;;;;;5075609;28;20029;-76
2022/11/03 09:10:58;;;;;;;2.78;0.90;;;13.20;74.00;;;;;;5081048;28;20032;-75
2022/11/03 09:13:24;;;;;;;2.63;0.90;;;13.20;73.90;;;;;;5082953;28;20024;-76
2022/11/03 09:15:49;;;;;;;4.55;0.98;;;13.30;73.90;;;;;;5076597;28;20239;-75
2022/11/03 09:18:16;;;;;;;4.68;1.17;;;13.40;74.00;;;;;;5071814;28;20039;-74
2022/11/03 09:20:41;;;;;;;3.72;1.40;;;13.50;74.00;;;;;;5082543;28;20444;-77
2022/11/03 09:23:07;;;;;;;4.78;1.40;;;13.50;73.80;;;;;;5082310;28;20465;-76
2022/11/03 09:25:33;;;;;;;6.80;1.00;;;13.60;73.80;;;;;;5081550;28;20036;-74
2022/11/03 09:27:59;;;;;;;2.80;1.33;;;13.60;73.50;;;;;;5076715;28;20523;-74
2022/11/03 09:30:25;;;;;;;3.58;1.00;;;13.70;73.60;;;;;;5053650;28;20506;-76
2022/11/03 09:32:51;;;;;;;4.57;1.15;;;13.80;73.60;;;;;;5082396;28;20027;-77
2022/11/03 09:35:17;;;;;;;6.55;1.63;;;13.80;73.40;;;;;;5081567;28;20020;-75
2022/11/03 09:37:43;;;;;;;3.55;1.17;;;13.90;74.10;;;;;;5081624;28;20056;-74
2022/11/03 09:40:12;;;;;;;9.25;1.52;;;13.90;73.40;;;;;;5082453;28;20021;-75
2022/11/03 09:42:38;;;;;;;4.40;1.67;;;14.00;73.40;;;;;;5081037;28;20089;-73
2022/11/03 09:45:07;;;;;;;5.43;1.48;;;14.00;73.20;;;;;;5082027;28;20024;-81
2022/11/03 09:47:36;;;;;;;5.15;1.27;;;14.10;73.20;;;;;;5080704;28;20084;-81
2022/11/03 09:50:04;;;;;;;3.45;1.42;;;14.10;73.00;;;;;;5072438;28;20035;-81
2022/11/03 09:52:30;;;;;;;5.53;1.60;;;14.10;73.00;;;;;;5082291;28;20036;-81
2022/11/03 09:54:58;;;;;;;4.60;1.15;;;14.10;73.00;;;;;;5076044;28;20032;-80
2022/11/03 09:57:27;;;;;;;3.58;1.60;;;14.10;73.00;;;;;;5072689;28;20032;-80
2022/11/03 09:59:54;;;;;;;3.85;1.10;;;14.10;73.00;;;;;;5078143;28;20581;-80
2022/11/03 10:02:29;;;;;;;5.45;1.58;;;14.20;73.10;;;;;;5083960;28;20093;-80
2022/11/03 10:04:57;;;;;;;2.67;1.10;;;14.30;73.10;;;;;;5065826;28;20521;-79
2022/11/03 10:07:25;;;;;;;3.40;1.05;;;14.40;73.10;;;;;;5058284;28;20029;-79
2022/11/03 10:09:52;;;;;;;4.40;1.45;;;14.40;72.80;;;;;;5086416;28;20108;-79
2022/11/03 10:12:20;;;;;;;4.18;1.40;;;14.40;72.70;;;;;;5075981;28;20048;-77
2022/11/03 10:14:46;;;;;;;5.13;1.73;;;14.40;72.60;;;;;;5086233;28;20044;-75
2022/11/03 10:17:29;;;;;;;4.70;1.08;;;14.40;72.60;;;;;;5087028;28;20040;-73
2022/11/03 10:19:57;;;;;;;3.75;1.27;;;14.50;72.70;;;;;;5068656;28;20524;-73
2022/11/03 10:22:23;;;;;;;3.97;0.98;;;14.50;72.70;;;;;;5085968;28;20039;-77
2022/11/03 10:25:12;;;;;;;2.67;1.55;;;14.60;73.00;;;;;;5086231;28;20422;-74
2022/11/03 10:27:38;;;;;;;2.63;0.77;;;14.70;73.10;;;;;;5081188;28;20032;-75
2022/11/03 10:30:07;;;;;;;2.60;0.90;;;14.80;73.10;;;;;;5086436;28;20020;-75
2022/11/03 10:32:33;;;;;;;3.33;1.75;;;15.00;73.20;;;;;;5086071;28;20031;-75
2022/11/03 10:35:00;;;;;;;5.43;1.35;;;15.10;73.10;;;;;;5081440;28;20031;-75
2022/11/03 10:37:27;;;;;;;2.92;1.08;;;15.10;72.90;;;;;;5087264;28;20382;-75
2022/11/03 10:39:55;;;;;;;5.25;1.77;;;15.20;72.80;;;;;;5086008;28;20043;-74
2022/11/03 10:42:28;;;;;;;3.22;1.00;;;15.30;72.80;;;;;;5081269;28;20480;-74
2022/11/03 10:45:18;;;;;;;4.95;1.55;;;15.30;72.60;;;;;;5073343;28;20437;-75
2022/11/03 10:47:59;;;;;;;3.03;0.90;;;15.40;72.60;;;;;;5084688;28;20492;-74
2022/11/03 10:50:26;;;;;;;2.85;1.33;;;15.50;72.50;;;;;;5086246;28;20055;-75
2022/11/03 10:52:53;;;;;;;3.15;0.93;;;15.50;72.40;;;;;;5070190;28;20028;-75
2022/11/03 10:55:21;;;;;;;3.03;1.35;;;15.50;72.20;;;;;;5078265;28;20036;-75
2022/11/03 10:57:48;;;;;;;2.65;0.82;;;15.60;72.20;;;;;;5082098;28;20046;-75
2022/11/03 11:00:16;;;;;;;3.03;0.95;;;15.70;72.20;;;;;;5088539;28;20074;-75
2022/11/03 11:02:45;;;;;;;4.43;1.20;;;15.70;72.00;;;;;;5089406;28;20413;-75
2022/11/03 11:05:20;;;;;;;3.80;1.15;;;15.80;72.00;;;;;;5087488;28;20036;-74
2022/11/03 11:07:49;;;;;;;1.48;0.80;;;15.80;71.80;;;;;;5087515;28;20474;-74
2022/11/03 11:10:21;;;;;;;3.85;0.93;;;15.90;71.90;;;;;;5077695;28;20046;-74
2022/11/03 11:13:22;;;;;;;2.83;0.80;;;15.90;71.60;;;;;;5085393;28;20540;-74
2022/11/03 11:15:53;;;;;;;4.13;1.23;;;16.00;71.50;;;;;;5078867;28;20042;-73
2022/11/03 11:18:28;;;;;;;5.00;0.93;;;16.10;71.60;;;;;;5079380;28;20398;-74
2022/11/03 11:20:59;;;;;;;3.50;1.08;;;16.20;71.50;;;;;;5065003;28;20479;-73
2022/11/03 11:23:27;;;;;;;4.35;0.95;;;16.30;71.50;;;;;;5078486;28;20033;-73
2022/11/03 11:26:08;;;;;;;2.60;1.67;;;16.40;71.40;;;;;;5083938;28;20402;-73
2022/11/03 11:29:14;;;;;;;3.20;0.90;;;16.50;71.30;;;;;;5079745;28;20135;-75
2022/11/03 11:31:41;;;;;;;5.07;1.92;;;16.70;71.20;;;;;;5078398;28;20032;-78
2022/11/03 11:34:17;;;;;;;3.90;1.20;;;16.80;71.20;;;;;;5084076;28;20028;-79
2022/11/03 11:36:46;;;;;;;4.32;0.90;;;17.00;71.10;;;;;;5068885;28;20163;-78
2022/11/03 11:39:42;;;;;;;3.97;1.33;;;17.10;70.90;;;;;;5084656;28;20405;-81
2022/11/03 11:42:15;;;;;;;3.08;1.13;;;17.30;70.70;;;;;;5082250;28;20042;-80
2022/11/03 11:44:45;;;;;;;3.28;0.98;;;17.40;70.70;;;;;;5082261;28;20032;-82
2022/11/03 11:47:31;;;;;;;4.70;1.20;;;17.50;70.50;;;;;;5083419;28;20521;-80
2022/11/03 11:50:09;;;;;;;4.32;1.20;;;17.60;70.30;;;;;;5081687;28;20360;-81
2022/11/03 11:53:03;;;;;;;3.88;1.33;;;17.60;70.20;;;;;;5084201;28;20628;-77
2022/11/03 11:55:55;;;;;;;4.25;1.02;;;17.60;70.00;;;;;;5080244;28;20142;-76
2022/11/03 11:58:24;;;;;;;2.80;1.15;;;17.60;69.70;;;;;;5075832;28;20055;-76
2022/11/03 12:00:51;;;;;;;3.50;1.10;;;17.60;69.90;;;;;;5083362;28;20039;-76
2022/11/03 12:03:23;;;;;;;2.42;1.00;;;17.60;69.80;;;;;;5082701;28;20038;-75
2022/11/03 12:05:49;;;;;;;4.10;1.20;;;17.50;69.70;;;;;;5054128;28;20029;-75
2022/11/03 12:08:19;;;;;;;2.70;1.02;;;17.40;69.60;;;;;;5084765;28;20109;-74
2022/11/03 12:10:53;;;;;;;3.53;1.15;;;17.30;69.60;;;;;;5084713;28;20574;-78
2022/11/03 12:13:42;;;;;;;4.05;0.77;;;17.10;69.90;;;;;;5083037;28;20236;-75
2022/11/03 12:16:10;;;;;;;2.47;1.10;;;16.90;69.10;;;;;;5082544;28;20031;-75
2022/11/03 12:18:41;;;;;;;4.35;1.20;;;16.80;69.30;;;;;;5080648;28;20405;-76
2022/11/03 12:21:12;;;;;;;1.60;0.80;;;16.60;69.10;;;;;;5074440;28;20386;-75
2022/11/03 12:23:45;;;;;;;2.10;0.93;;;16.50;69.20;;;;;;5064144;28;20050;-77
2022/11/03 12:26:37;;;;;;;;;;;16.40;69.10;;;;;;5083630;28;20036;-78
2022/11/03 12:29:07;;;;;;;3.22;0.98;;;16.30;69.20;;;;;;5077645;28;19914;-76
2022/11/03 12:31:33;;;;;;;2.38;1.05;;;16.20;69.30;;;;;;5083063;28;20050;-75
2022/11/03 12:33:59;;;;;;;4.18;0.98;;;16.20;69.20;;;;;;5076909;28;20070;-76
2022/11/03 12:36:25;;;;;;;2.60;0.90;;;16.20;69.10;;;;;;5075573;28;20048;-76
2022/11/03 12:38:52;;;;;;;3.17;0.70;;;16.20;69.00;;;;;;5080270;28;20032;-75
2022/11/03 12:41:20;;;;;;;5.03;2.13;;;16.30;69.00;;;;;;5077850;28;20078;-75
2022/11/03 12:43:50;;;;;;;3.83;0.90;;;16.30;68.80;;;;;;5067533;28;20400;-76
2022/11/03 12:46:18;;;;;;;5.00;1.75;;;16.30;68.60;;;;;;5076837;28;20043;-74
2022/11/03 12:48:46;;;;;;;2.72;2.03;;;16.40;68.70;;;;;;5081104;28;20422;-75
2022/11/03 12:51:16;;;;;;;3.15;0.90;;;16.40;68.60;;;;;;5069960;28;20249;-75
2022/11/03 12:53:42;;;;;;;3.92;0.95;;;16.40;68.50;;;;;;5082423;28;20028;-77
2022/11/03 12:56:09;;;;;;;1.95;0.80;;;16.40;68.30;;;;;;5083323;28;20491;-79
2022/11/03 12:58:35;;;;;;;5.05;1.13;;;16.40;68.10;;;;;;5077013;28;20067;-76
2022/11/03 13:01:02;;;;;;;1.83;0.80;;;16.40;68.00;;;;;;5081726;28;20563;-75
2022/11/03 13:03:28;;;;;;;2.50;0.98;;;16.40;67.80;;;;;;5083484;28;20499;-75
2022/11/03 13:05:54;;;;;;;2.33;0.88;;;16.40;67.70;;;;;;5080981;28;20323;-76
2022/11/03 13:08:20;;;;;;;5.03;1.15;;;16.50;67.80;;;;;;5081704;28;20036;-76
2022/11/03 13:10:46;;;;;;;4.75;1.08;;;16.40;67.60;;;;;;5083090;28;20027;-75
2022/11/03 13:13:12;;;;;;;1.80;0.93;;;16.40;67.60;;;;;;5081519;28;20040;-76
2022/11/03 13:15:38;;;;;;;2.78;0.90;;;16.40;67.50;;;;;;5077325;28;20259;-76
2022/11/03 13:18:04;;;;;;;1.77;0.60;;;16.40;67.50;;;;;;5081437;28;20109;-76
2022/11/03 13:20:32;;;;;;;3.00;1.55;;;16.40;67.40;;;;;;5080596;28;20506;-75
2022/11/03 13:22:58;;;;;;;2.15;0.68;;;16.40;67.50;;;;;;5071644;28;20054;-77